createdAt,value
2023-03-21T00:02:12.914Z,26.13
2023-03-21T00:07:30.983Z,24.50
2023-03-21T00:10:12.497Z,24.93
2023-03-21T00:12:43.380Z,22.90
2023-03-21T00:15:13.908Z,23.07
2023-03-21T00:17:44.852Z,22.67
2023-03-21T00:20:15.422Z,22.70
2023-03-21T00:22:44.419Z,21.23
2023-03-21T00:25:13.168Z,20.37
2023-03-21T00:27:57.240Z,21.50
2023-03-21T00:30:30.914Z,19.37
2023-03-21T00:33:05.874Z,20.37
2023-03-21T00:38:31.245Z,18.33
2023-03-21T00:41:04.739Z,17.83
2023-03-21T00:43:33.720Z,17.20
2023-03-21T00:46:03.419Z,16.13
2023-03-21T00:48:33.994Z,16.30
2023-03-21T00:51:03.300Z,15.77
2023-03-21T00:53:32.864Z,15.43
2023-03-21T00:56:01.657Z,15.13
2023-03-21T00:58:31.348Z,15.03
2023-03-21T01:01:02.710Z,15.97
2023-03-21T01:03:42.536Z,16.27
2023-03-21T01:06:14.908Z,15.33
2023-03-21T01:08:52.301Z,15.37
2023-03-21T01:11:23.947Z,15.47
2023-03-21T01:13:57.792Z,15.27
2023-03-21T01:16:30.980Z,16.53
2023-03-21T01:19:04.745Z,15.87
2023-03-21T01:21:34.356Z,15.57
2023-03-21T01:24:03.534Z,15.33
2023-03-21T01:26:32.481Z,16.47
2023-03-21T01:29:01.314Z,15.60
2023-03-21T01:31:30.254Z,15.97
2023-03-21T01:34:00.570Z,16.70
2023-03-21T01:36:29.421Z,15.63
2023-03-21T01:39:03.595Z,14.93
2023-03-21T01:41:43.129Z,15.30
2023-03-21T01:44:28.260Z,14.50
2023-03-21T01:47:11.101Z,15.00
2023-03-21T01:50:02.246Z,13.37
2023-03-21T01:52:41.893Z,12.27
2023-03-21T01:55:18.012Z,11.87
2023-03-21T01:58:10.103Z,11.87
2023-03-21T02:01:04.825Z,10.77
2023-03-21T02:03:50.225Z,12.33
2023-03-21T02:06:45.064Z,11.20
2023-03-21T02:09:28.862Z,11.03
2023-03-21T02:11:58.361Z,10.83
2023-03-21T02:14:33.124Z,10.60
2023-03-21T02:17:19.862Z,9.67
2023-03-21T02:20:26.589Z,10.60
2023-03-21T02:23:24.391Z,9.83
2023-03-21T02:26:15.555Z,10.20
2023-03-21T02:28:48.462Z,10.60
2023-03-21T02:31:29.606Z,10.37
2023-03-21T02:34:26.093Z,11.00
2023-03-21T02:37:07.635Z,11.00
2023-03-21T02:39:47.232Z,10.63
2023-03-21T02:42:21.546Z,11.50
2023-03-21T02:44:59.910Z,10.80
2023-03-21T02:47:34.699Z,11.10
2023-03-21T02:50:13.524Z,11.50
2023-03-21T02:52:47.631Z,11.53
2023-03-21T02:55:21.330Z,10.33
2023-03-21T02:58:11.735Z,11.27
2023-03-21T03:00:46.185Z,11.27
2023-03-21T03:03:33.477Z,10.70
2023-03-21T03:06:12.099Z,11.03
2023-03-21T03:09:02.264Z,11.50
2023-03-21T03:11:34.689Z,11.90
2023-03-21T03:14:53.063Z,11.87
2023-03-21T03:17:34.350Z,11.20
2023-03-21T03:20:17.520Z,10.97
2023-03-21T03:22:59.971Z,10.90
2023-03-21T03:25:42.896Z,10.60
2023-03-21T03:28:18.392Z,10.30
2023-03-21T03:31:07.038Z,10.57
2023-03-21T03:33:45.031Z,10.73
2023-03-21T03:36:33.517Z,11.07
2023-03-21T03:39:15.485Z,11.40
2023-03-21T03:42:10.035Z,10.57
2023-03-21T03:44:45.506Z,10.73
2023-03-21T03:47:32.242Z,11.67
2023-03-21T03:50:10.484Z,10.83
2023-03-21T03:52:55.288Z,11.43
2023-03-21T03:55:34.429Z,12.77
2023-03-21T03:58:21.723Z,13.93
2023-03-21T04:00:52.989Z,14.97
2023-03-21T04:03:23.113Z,16.03
2023-03-21T04:05:52.390Z,15.87
2023-03-21T04:08:23.390Z,12.87
2023-03-21T04:10:55.884Z,12.00
2023-03-21T04:13:27.470Z,11.00
2023-03-21T04:16:04.839Z,11.67
2023-03-21T04:18:33.883Z,12.13
2023-03-21T04:21:03.658Z,11.20
2023-03-21T04:23:33.341Z,12.00
2023-03-21T04:26:02.276Z,11.50
2023-03-21T04:28:39.846Z,13.03
2023-03-21T04:31:26.423Z,12.07
2023-03-21T04:34:09.819Z,11.03
2023-03-21T04:36:43.058Z,12.03
2023-03-21T04:39:13.652Z,13.03
2023-03-21T04:41:46.314Z,12.80
2023-03-21T04:44:17.568Z,11.67
2023-03-21T04:46:46.956Z,12.17
2023-03-21T04:49:16.612Z,11.50
2023-03-21T04:51:46.372Z,11.83
2023-03-21T04:54:21.131Z,11.80
2023-03-21T04:56:52.079Z,12.23
2023-03-21T04:59:22.432Z,12.00
2023-03-21T05:01:52.466Z,12.57
2023-03-21T05:04:21.862Z,11.80
2023-03-21T05:06:51.655Z,12.73
2023-03-21T05:09:22.202Z,12.43
2023-03-21T05:11:51.832Z,13.40
2023-03-21T05:14:24.260Z,12.43
2023-03-21T05:16:56.260Z,12.23
2023-03-21T05:19:35.042Z,13.10
2023-03-21T05:22:07.045Z,12.77
2023-03-21T05:24:39.333Z,13.53
2023-03-21T05:27:10.796Z,13.53
2023-03-21T05:29:48.344Z,12.23
2023-03-21T05:32:18.178Z,12.60
2023-03-21T05:34:47.127Z,13.60
2023-03-21T05:37:16.197Z,12.57
2023-03-21T05:39:50.984Z,12.27
2023-03-21T05:42:26.527Z,14.20
2023-03-21T05:44:57.462Z,13.97
2023-03-21T05:47:31.339Z,13.57
2023-03-21T05:50:02.130Z,13.90
2023-03-21T05:52:32.551Z,14.40
2023-03-21T05:55:03.492Z,14.97
2023-03-21T05:57:35.175Z,14.40
2023-03-21T06:00:12.144Z,14.03
2023-03-21T06:02:55.558Z,13.13
2023-03-21T06:05:56.057Z,13.93
2023-03-21T06:08:28.755Z,14.33
2023-03-21T06:10:57.645Z,14.17
2023-03-21T06:13:27.151Z,15.27
2023-03-21T06:15:58.029Z,14.47
2023-03-21T06:18:28.126Z,16.07
2023-03-21T06:21:05.387Z,15.43
2023-03-21T06:23:34.170Z,14.77
2023-03-21T06:26:03.308Z,15.10
2023-03-21T06:28:32.586Z,14.87
2023-03-21T06:31:03.072Z,14.20
2023-03-21T06:33:33.435Z,15.63
2023-03-21T06:36:02.334Z,15.37
2023-03-21T06:38:31.754Z,16.17
2023-03-21T06:41:04.687Z,15.10
2023-03-21T06:43:38.248Z,14.83
2023-03-21T06:46:08.600Z,14.23
2023-03-21T06:48:39.350Z,14.50
2023-03-21T06:51:08.805Z,13.53
2023-03-21T06:53:41.564Z,15.50
2023-03-21T06:56:22.730Z,15.10
2023-03-21T06:58:51.663Z,13.80
2023-03-21T07:01:40.819Z,14.23
2023-03-21T07:04:10.315Z,14.23
2023-03-21T07:06:39.695Z,14.33
2023-03-21T07:09:08.835Z,14.30
2023-03-21T07:11:38.382Z,13.90
2023-03-21T07:14:08.031Z,13.77
2023-03-21T07:16:37.016Z,14.40
2023-03-21T07:19:07.319Z,15.53
2023-03-21T07:21:36.171Z,14.20
2023-03-21T07:24:05.758Z,14.93
2023-03-21T07:26:34.710Z,14.03
2023-03-21T07:29:05.408Z,14.13
2023-03-21T07:31:34.774Z,15.17
2023-03-21T07:34:04.310Z,15.73
2023-03-21T07:36:36.962Z,13.67
2023-03-21T07:39:06.373Z,14.63
2023-03-21T07:41:35.328Z,13.90
2023-03-21T07:44:24.662Z,13.57
2023-03-21T07:47:03.833Z,13.70
2023-03-21T07:49:32.967Z,13.83
2023-03-21T07:52:04.747Z,14.70
2023-03-21T07:54:34.004Z,14.20
2023-03-21T07:57:02.809Z,14.30
2023-03-21T07:59:31.789Z,14.30
2023-03-21T08:02:00.640Z,14.50
2023-03-21T08:04:30.123Z,14.57
2023-03-21T08:06:58.897Z,16.00
2023-03-21T08:09:30.731Z,16.53
2023-03-21T08:11:59.994Z,15.67
2023-03-21T08:14:28.960Z,15.37
2023-03-21T08:16:57.981Z,14.03
2023-03-21T08:19:27.136Z,15.70
2023-03-21T08:21:56.039Z,14.63
2023-03-21T08:24:24.773Z,14.20
2023-03-21T08:26:54.926Z,14.50
2023-03-21T08:29:25.177Z,14.30
2023-03-21T08:31:54.099Z,14.50
2023-03-21T08:34:23.178Z,15.07
2023-03-21T08:36:52.040Z,14.33
2023-03-21T08:39:21.947Z,15.37
2023-03-21T08:41:50.794Z,13.47
2023-03-21T08:44:22.125Z,14.23
2023-03-21T08:46:50.942Z,14.17
2023-03-21T08:49:19.737Z,13.93
2023-03-21T08:51:48.637Z,12.87
2023-03-21T08:54:21.800Z,14.40
2023-03-21T08:56:50.698Z,14.03
2023-03-21T08:59:21.913Z,14.80
2023-03-21T09:01:51.012Z,13.47
2023-03-21T09:04:20.588Z,13.33
2023-03-21T09:06:50.253Z,12.80
2023-03-21T09:09:19.014Z,12.03
2023-03-21T09:11:47.777Z,13.90
2023-03-21T09:14:18.360Z,12.87
2023-03-21T09:16:50.011Z,13.10
2023-03-21T09:19:19.050Z,13.40
2023-03-21T09:21:47.908Z,13.30
2023-03-21T09:24:18.169Z,13.07
2023-03-21T09:26:50.222Z,12.70
2023-03-21T09:29:20.928Z,12.40
2023-03-21T09:31:53.227Z,14.03
2023-03-21T09:34:22.387Z,13.70
2023-03-21T09:36:56.579Z,13.33
2023-03-21T09:39:27.197Z,13.53
2023-03-21T09:42:19.727Z,13.50
2023-03-21T09:44:58.355Z,14.47
2023-03-21T09:47:34.877Z,14.13
2023-03-21T09:50:14.932Z,14.40
2023-03-21T09:52:49.683Z,13.80
2023-03-21T09:55:21.408Z,13.63
2023-03-21T09:57:55.137Z,14.13
2023-03-21T10:00:30.003Z,13.97
2023-03-21T10:03:06.834Z,14.67
2023-03-21T10:05:40.500Z,13.30
2023-03-21T10:08:14.625Z,12.30
2023-03-21T10:10:47.990Z,13.10
2023-03-21T10:13:21.920Z,13.40
2023-03-21T10:15:50.960Z,14.00
2023-03-21T10:18:25.430Z,13.17
2023-03-21T10:20:54.861Z,12.73
2023-03-21T10:23:29.186Z,12.53
2023-03-21T10:26:01.012Z,12.90
2023-03-21T10:28:42.347Z,12.40
2023-03-21T10:31:22.436Z,13.90
2023-03-21T10:33:53.408Z,13.57
2023-03-21T10:36:25.851Z,14.53
2023-03-21T10:38:56.712Z,13.50
2023-03-21T10:41:25.593Z,14.67
2023-03-21T10:44:07.464Z,13.80
2023-03-21T10:46:36.665Z,14.10
2023-03-21T10:49:08.963Z,13.80
2023-03-21T10:51:39.323Z,14.23
2023-03-21T10:54:13.118Z,14.90
2023-03-21T10:56:47.170Z,15.33
2023-03-21T10:59:22.790Z,15.10
2023-03-21T11:01:55.357Z,15.20
2023-03-21T11:04:27.907Z,14.27
2023-03-21T11:06:59.677Z,14.73
2023-03-21T11:09:46.157Z,15.60
2023-03-21T11:12:17.627Z,14.13
2023-03-21T11:14:47.860Z,14.03
2023-03-21T11:17:25.454Z,13.07
2023-03-21T11:19:59.786Z,12.97
2023-03-21T11:22:31.978Z,14.17
2023-03-21T11:25:02.272Z,13.13
2023-03-21T11:27:32.701Z,13.83
2023-03-21T11:30:05.253Z,12.30
2023-03-21T11:32:36.364Z,12.40
2023-03-21T11:35:14.364Z,12.47
2023-03-21T11:37:46.468Z,12.23
2023-03-21T11:40:23.573Z,12.13
2023-03-21T11:42:54.055Z,11.57
2023-03-21T11:45:24.902Z,12.57
2023-03-21T11:47:56.725Z,12.63
2023-03-21T11:50:34.004Z,12.27
2023-03-21T11:53:26.773Z,11.63
2023-03-21T11:56:13.499Z,11.73
2023-03-21T11:59:10.606Z,11.57
2023-03-21T12:01:49.566Z,11.27
2023-03-21T12:04:27.133Z,11.43
2023-03-21T12:07:03.886Z,12.27
2023-03-21T12:09:39.288Z,9.83
2023-03-21T12:12:26.970Z,10.93
2023-03-21T12:15:10.559Z,11.33
2023-03-21T12:17:50.067Z,11.67
2023-03-21T12:20:30.782Z,12.57
2023-03-21T12:23:26.869Z,12.57
2023-03-21T12:26:02.049Z,12.63
2023-03-21T12:28:39.229Z,12.97
2023-03-21T12:31:18.059Z,11.83
2023-03-21T12:34:07.243Z,10.83
2023-03-21T12:36:57.163Z,12.53
2023-03-21T12:39:31.457Z,12.17
2023-03-21T12:42:25.390Z,10.73
2023-03-21T12:45:06.056Z,12.43
2023-03-21T12:47:36.784Z,12.20
2023-03-21T12:50:13.984Z,12.50
2023-03-21T12:52:45.653Z,13.33
2023-03-21T12:55:21.634Z,12.70
2023-03-21T12:57:57.777Z,12.07
2023-03-21T13:00:33.552Z,12.20
2023-03-21T13:03:05.389Z,12.00
2023-03-21T13:05:37.988Z,10.87
2023-03-21T13:08:13.050Z,10.30
2023-03-21T13:10:46.187Z,10.67
2023-03-21T13:13:23.900Z,11.10
2023-03-21T13:16:10.490Z,10.87
2023-03-21T13:19:02.501Z,10.43
2023-03-21T13:21:44.602Z,10.27
2023-03-21T13:24:25.823Z,10.53
2023-03-21T13:27:02.566Z,10.70
2023-03-21T13:29:34.606Z,10.93
2023-03-21T13:32:16.492Z,11.00
2023-03-21T13:34:45.562Z,11.77
2023-03-21T13:37:17.912Z,11.23
2023-03-21T13:39:48.276Z,10.47
2023-03-21T13:42:25.400Z,11.27
2023-03-21T13:44:57.763Z,11.50
2023-03-21T13:47:52.158Z,10.53
2023-03-21T13:50:36.497Z,11.20
2023-03-21T13:53:23.974Z,11.10
2023-03-21T13:56:22.062Z,10.53
2023-03-21T13:59:00.353Z,10.53
2023-03-21T14:01:42.573Z,10.73
2023-03-21T14:04:15.548Z,11.60
2023-03-21T14:06:50.085Z,10.93
2023-03-21T14:09:25.429Z,10.93
2023-03-21T14:11:58.740Z,11.17
2023-03-21T14:14:38.975Z,11.03
2023-03-21T14:17:14.258Z,12.30
2023-03-21T14:19:43.011Z,13.27
2023-03-21T14:22:14.439Z,12.00
2023-03-21T14:24:49.439Z,12.03
2023-03-21T14:27:19.099Z,12.10
2023-03-21T14:29:51.419Z,13.70
2023-03-21T14:32:24.146Z,13.97
2023-03-21T14:34:53.740Z,15.67
2023-03-21T14:37:34.970Z,26.60
2023-03-21T14:40:09.136Z,15.83
2023-03-21T14:42:39.535Z,15.93
2023-03-21T14:45:21.089Z,18.40
2023-03-21T14:47:58.387Z,19.03
2023-03-21T14:50:33.871Z,16.40
2023-03-21T14:53:02.922Z,18.13
2023-03-21T14:55:32.045Z,14.63
2023-03-21T14:58:00.870Z,15.37
2023-03-21T15:00:32.395Z,14.20
2023-03-21T15:03:03.064Z,14.63
2023-03-21T15:05:34.747Z,13.83
2023-03-21T15:08:08.270Z,16.70
2023-03-21T15:10:38.541Z,12.00
2023-03-21T15:13:16.177Z,12.00
2023-03-21T15:15:47.254Z,12.00
2023-03-21T15:18:19.496Z,13.20
2023-03-21T15:20:51.309Z,12.47
2023-03-21T15:23:29.910Z,14.03
2023-03-21T15:25:59.387Z,13.37
2023-03-21T15:28:28.299Z,13.00
2023-03-21T15:30:58.730Z,20.37
2023-03-21T15:33:27.947Z,23.53
2023-03-21T15:35:59.448Z,17.13
2023-03-21T15:38:33.594Z,18.27
2023-03-21T15:41:29.199Z,17.77
2023-03-21T15:44:06.526Z,21.97
2023-03-21T15:46:43.247Z,18.47
2023-03-21T15:49:21.161Z,17.23
2023-03-21T15:51:54.103Z,18.90
2023-03-21T15:54:25.895Z,18.97
2023-03-21T15:56:56.490Z,17.33
2023-03-21T15:59:28.613Z,17.13
2023-03-21T16:01:59.169Z,17.37
2023-03-21T16:04:28.124Z,18.67
2023-03-21T16:07:02.248Z,17.00
2023-03-21T16:09:40.835Z,18.53
2023-03-21T16:12:13.214Z,19.50
2023-03-21T16:14:43.037Z,18.80
2023-03-21T16:17:36.726Z,20.00
2023-03-21T16:20:14.484Z,17.47
2023-03-21T16:22:43.442Z,18.17
2023-03-21T16:25:12.194Z,20.63
2023-03-21T16:27:41.108Z,20.83
2023-03-21T16:30:13.136Z,22.87
2023-03-21T16:32:43.326Z,24.80
2023-03-21T16:35:12.570Z,35.63
2023-03-21T16:37:41.838Z,37.07
2023-03-21T16:40:28.715Z,30.13
2023-03-21T16:42:57.699Z,21.33
2023-03-21T16:45:28.703Z,21.80
2023-03-21T16:47:59.523Z,22.27
2023-03-21T16:50:31.616Z,20.30
2023-03-21T16:53:01.341Z,19.27
2023-03-21T16:55:32.913Z,21.90
2023-03-21T16:58:02.157Z,18.30
2023-03-21T17:00:32.244Z,22.47
2023-03-21T17:03:07.667Z,25.87
2023-03-21T17:05:36.431Z,28.07
2023-03-21T17:08:05.515Z,31.60
2023-03-21T17:10:34.808Z,33.33
2023-03-21T17:13:03.615Z,34.40
2023-03-21T17:15:32.444Z,39.47
2023-03-21T17:18:03.129Z,34.37
2023-03-21T17:20:34.059Z,46.90
2023-03-21T17:23:03.001Z,45.80
2023-03-21T17:25:31.869Z,35.73
2023-03-21T17:28:00.797Z,28.73
2023-03-21T17:30:32.043Z,23.63
2023-03-21T17:33:02.757Z,29.77
2023-03-21T17:35:31.664Z,27.70
2023-03-21T17:38:00.493Z,24.67
2023-03-21T17:40:30.994Z,24.97
2023-03-21T17:43:01.349Z,40.67
2023-03-21T17:45:30.670Z,36.27
2023-03-21T17:47:59.621Z,30.77
2023-03-21T17:50:37.241Z,28.90
2023-03-21T17:53:06.522Z,23.90
2023-03-21T17:55:36.301Z,26.70
2023-03-21T17:58:06.196Z,31.50
2023-03-21T18:00:34.939Z,47.47
2023-03-21T18:03:03.844Z,59.50
2023-03-21T18:05:34.050Z,69.80
2023-03-21T18:08:10.196Z,88.47
2023-03-21T18:10:40.710Z,94.53
2023-03-21T18:13:09.989Z,103.00
2023-03-21T18:15:44.101Z,93.10
2023-03-21T18:18:14.596Z,94.30
2023-03-21T18:20:52.281Z,85.30
2023-03-21T18:23:22.042Z,56.47
2023-03-21T18:25:52.470Z,48.70
2023-03-21T18:28:22.398Z,42.17
2023-03-21T18:33:41.788Z,39.07
2023-03-21T18:36:14.336Z,32.93
2023-03-21T18:38:43.388Z,29.50
2023-03-21T18:41:12.427Z,35.00
2023-03-21T18:44:05.104Z,36.43
2023-03-21T18:46:31.674Z,37.13
2023-03-21T18:49:20.008Z,32.57
2023-03-21T18:51:50.776Z,40.50
2023-03-21T18:54:19.645Z,40.63
2023-03-21T18:57:33.883Z,39.40
2023-03-21T18:59:40.304Z,34.47
2023-03-21T19:02:09.508Z,34.30
2023-03-21T19:04:38.471Z,44.67
2023-03-21T19:07:09.145Z,35.83
2023-03-21T19:10:01.631Z,27.97
2023-03-21T19:12:27.398Z,23.73
2023-03-21T19:14:56.741Z,26.23
2023-03-21T19:20:15.526Z,26.63
2023-03-21T19:22:46.589Z,27.30
2023-03-21T19:25:16.043Z,29.20
2023-03-21T19:27:45.203Z,31.53
2023-03-21T19:30:15.880Z,32.80
2023-03-21T19:32:45.560Z,36.03
2023-03-21T19:35:14.624Z,36.53
2023-03-21T19:37:43.372Z,32.97
2023-03-21T19:40:14.395Z,32.00
2023-03-21T19:42:43.324Z,32.67
2023-03-21T19:45:12.787Z,32.67
2023-03-21T19:47:41.576Z,34.40
2023-03-21T19:53:00.466Z,32.77
2023-03-21T19:55:31.122Z,33.50
2023-03-21T19:58:00.160Z,31.80
2023-03-21T20:00:29.067Z,31.67
2023-03-21T20:02:58.062Z,31.17
2023-03-21T20:05:27.549Z,31.27
2023-03-21T20:07:57.233Z,32.63
2023-03-21T20:10:27.671Z,31.90
2023-03-21T20:12:58.260Z,33.47
2023-03-21T20:15:29.945Z,33.87
2023-03-21T20:17:59.671Z,34.40
2023-03-21T20:20:28.444Z,31.47
2023-03-21T20:23:06.733Z,33.47
2023-03-21T20:25:39.945Z,33.50
2023-03-21T20:28:16.297Z,33.53
2023-03-21T20:30:50.841Z,33.80
2023-03-21T20:33:19.954Z,34.37
2023-03-21T20:38:39.290Z,33.93
2023-03-21T20:41:08.579Z,32.23
2023-03-21T20:46:30.982Z,32.93
2023-03-21T20:48:59.846Z,32.40
2023-03-21T20:54:17.926Z,33.37
2023-03-21T20:56:46.692Z,36.20
2023-03-21T20:59:26.141Z,34.97
2023-03-21T21:01:57.252Z,38.80
2023-03-21T21:04:44.867Z,38.23
2023-03-21T21:07:20.403Z,36.13
2023-03-21T21:09:50.077Z,36.50
2023-03-21T21:12:19.785Z,35.07
2023-03-21T21:14:50.051Z,36.50
2023-03-21T21:17:40.401Z,37.63
2023-03-21T21:20:16.496Z,37.23
2023-03-21T21:22:58.571Z,38.13
2023-03-21T21:25:29.242Z,38.77
2023-03-21T21:27:58.017Z,36.53
2023-03-21T21:30:29.318Z,39.17
2023-03-21T21:32:59.734Z,39.43
2023-03-21T21:35:28.677Z,41.03
2023-03-21T21:37:57.565Z,39.60
2023-03-21T21:40:26.422Z,40.33
2023-03-21T21:42:55.587Z,41.20
2023-03-21T21:45:24.380Z,39.80
2023-03-21T21:47:54.626Z,39.97
2023-03-21T21:50:23.543Z,39.40
2023-03-21T21:52:54.777Z,39.03
2023-03-21T21:55:24.032Z,38.30
2023-03-21T21:57:52.899Z,38.57
2023-03-21T22:00:23.080Z,37.93
2023-03-21T22:02:52.015Z,38.00
2023-03-21T22:05:22.571Z,39.10
2023-03-21T22:07:53.524Z,38.00
2023-03-21T22:10:23.986Z,37.80
2023-03-21T22:12:53.349Z,39.27
2023-03-21T22:15:24.017Z,38.47
2023-03-21T22:17:53.049Z,37.83
2023-03-21T22:20:23.463Z,37.63
2023-03-21T22:22:52.598Z,38.00
2023-03-21T22:25:21.572Z,37.67
2023-03-21T22:27:50.891Z,37.73
2023-03-21T22:30:20.013Z,37.77
2023-03-21T22:33:02.497Z,34.10
2023-03-21T22:35:38.745Z,35.20
2023-03-21T22:38:07.626Z,35.33
2023-03-21T22:40:36.675Z,36.80
2023-03-21T22:43:05.653Z,35.47
2023-03-21T22:45:34.975Z,35.20
2023-03-21T22:48:03.973Z,35.20
2023-03-21T22:50:32.822Z,33.90
2023-03-21T22:53:03.022Z,35.37
2023-03-21T22:55:31.825Z,36.60
2023-03-21T22:58:00.600Z,37.23
2023-03-21T23:00:29.390Z,37.43
2023-03-21T23:02:59.589Z,38.33
2023-03-21T23:05:28.685Z,38.03
2023-03-21T23:07:57.462Z,37.63
2023-03-21T23:10:27.659Z,36.70
2023-03-21T23:12:56.419Z,36.07
2023-03-21T23:15:25.244Z,36.00
2023-03-21T23:17:54.050Z,34.97
2023-03-21T23:20:23.139Z,36.20
2023-03-21T23:22:51.912Z,35.33
2023-03-21T23:25:21.002Z,36.07
2023-03-21T23:27:51.282Z,35.33
2023-03-21T23:30:20.614Z,34.93
2023-03-21T23:32:49.357Z,35.70
2023-03-21T23:35:18.606Z,35.73
2023-03-21T23:37:50.141Z,36.03
2023-03-21T23:40:19.108Z,34.87
2023-03-21T23:42:47.918Z,35.70
2023-03-21T23:45:18.643Z,37.50
2023-03-21T23:47:47.497Z,36.97
2023-03-21T23:50:16.476Z,36.43
2023-03-21T23:52:45.320Z,34.93
2023-03-21T23:55:14.094Z,36.67
2023-03-21T23:57:43.939Z,37.93
